Paris/Le Bourget Airport

Airport
ICAO code: 
LFPB
IATA Code: 
LBG
Summary
ICAO Region: 
EUR
Territory: 
Location: 
Le Bourget, Bonneuil-en-France, Ile-de-France
Serving: 
Paris
Elevation: 
220 ft
Coordinates: 
Aerial View: 
48° 57' 41.166" N, 2° 26' 9.356" E
Metar
Observation
LFPB 281400Z AUTO 32013G24KT 270V350 9999 BKN027 OVC032 05/00 Q1002 TEMPO 4000 -SHRA BKN008 SCT013CB
Station
Paris / Le Bourget
Date/Time
2021-11-28 14:00:00
Wind direction
320°
Wind speed
13 kts
Lowest cloud amount
broken clouds
Temperature
5°C
Dew point
0°C
Humidity
70%
QNH
1002 hPa
Weather condition
n/a

Description

Paris - Le Bourget Airport is an airport located in Le Bourget, Bonneuil-en-France, and Dugny, 6 nm north-northeast (NNE) of Paris, France. It is now used only for general aviation (business jets) as well as air shows.

Climatology

Temperate Marine climate/Oceanic climate (Köppen climate classification Cfb). Moderately cool summer and comparatively warm winter. Prevailing south-westerly winds from the Atlantic Ocean.

Runways

Designator Length Width Surface Rops
9/27 1845 45 ASP Yes/Yes
3/21 2665 60 ASP Yes/Yes
7/25 3000 45 CON Yes/Yes
Airport map: 
Aerial View: 

Accidents and Serious Incidents at or in the vicinity of LFPB

SKYbrary Partners:

Safety knowledge contributed by: